sensor_id;sensor_type;location;lat;lon;timestamp;pressure;altitude;pressure_sealevel;temperature;humidity
50087;BME280;35967;50.718;7.050;2022-07-01T00:05:35;100699.47;;;18.32;74.10
50087;BME280;35967;50.718;7.050;2022-07-01T00:15:37;100692.25;;;18.21;74.48
50087;BME280;35967;50.718;7.050;2022-07-01T00:25:39;100705.38;;;18.36;74.39
50087;BME280;35967;50.718;7.050;2022-07-01T00:35:41;100724.81;;;18.12;74.78
50087;BME280;35967;50.718;7.050;2022-07-01T00:45:45;100743.28;;;18.57;73.28
50087;BME280;35967;50.718;7.050;2022-07-01T00:55:49;100740.88;;;18.54;73.44
50087;BME280;35967;50.718;7.050;2022-07-01T01:05:51;100769.28;;;18.75;73.09
50087;BME280;35967;50.718;7.050;2022-07-01T01:15:56;100764.47;;;18.51;73.18
50087;BME280;35967;50.718;7.050;2022-07-01T01:25:58;100767.91;;;18.52;72.84
50087;BME280;35967;50.718;7.050;2022-07-01T01:36:00;100792.63;;;18.44;72.42
50087;BME280;35967;50.718;7.050;2022-07-01T01:46:03;100784.09;;;18.58;71.74
50087;BME280;35967;50.718;7.050;2022-07-01T01:56:05;100786.25;;;18.50;71.30
50087;BME280;35967;50.718;7.050;2022-07-01T02:06:08;100795.00;;;18.16;73.12
50087;BME280;35967;50.718;7.050;2022-07-01T02:16:13;100810.06;;;18.10;72.10
50087;BME280;35967;50.718;7.050;2022-07-01T02:26:15;100831.25;;;17.85;71.37
50087;BME280;35967;50.718;7.050;2022-07-01T02:36:17;100863.91;;;18.10;71.58
50087;BME280;35967;50.718;7.050;2022-07-01T02:46:19;100870.34;;;18.03;70.78
50087;BME280;35967;50.718;7.050;2022-07-01T02:56:20;100893.00;;;18.18;70.12
50087;BME280;35967;50.718;7.050;2022-07-01T03:06:22;100882.13;;;18.27;69.75
50087;BME280;35967;50.718;7.050;2022-07-01T03:16:24;100865.03;;;18.22;69.66
50087;BME280;35967;50.718;7.050;2022-07-01T03:26:26;100872.44;;;17.94;71.05
50087;BME280;35967;50.718;7.050;2022-07-01T03:36:27;100859.47;;;18.12;69.18
50087;BME280;35967;50.718;7.050;2022-07-01T03:46:29;100852.44;;;17.96;70.55
50087;BME280;35967;50.718;7.050;2022-07-01T03:56:33;100861.22;;;17.94;68.57
50087;BME280;35967;50.718;7.050;2022-07-01T04:06:35;100853.06;;;17.82;69.93
50087;BME280;35967;50.718;7.050;2022-07-01T04:16:38;100860.25;;;17.96;70.95
50087;BME280;35967;50.718;7.050;2022-07-01T04:26:41;100873.19;;;17.61;70.62
50087;BME280;35967;50.718;7.050;2022-07-01T04:36:44;100872.56;;;17.56;71.35
50087;BME280;35967;50.718;7.050;2022-07-01T04:46:46;100847.59;;;17.52;71.98
50087;BME280;35967;50.718;7.050;2022-07-01T04:56:51;100835.75;;;17.64;70.45
50087;BME280;35967;50.718;7.050;2022-07-01T05:06:54;100840.16;;;17.44;68.50
50087;BME280;35967;50.718;7.050;2022-07-01T05:16:56;100853.75;;;17.32;70.08
50087;BME280;35967;50.718;7.050;2022-07-01T05:26:59;100875.72;;;17.07;71.19
50087;BME280;35967;50.718;7.050;2022-07-01T05:37:01;100879.72;;;17.33;70.31
50087;BME280;35967;50.718;7.050;2022-07-01T05:47:03;100890.34;;;17.65;69.25
50087;BME280;35967;50.718;7.050;2022-07-01T05:57:05;100878.78;;;17.54;68.66
50087;BME280;35967;50.718;7.050;2022-07-01T06:07:10;100889.31;;;17.50;68.88
50087;BME280;35967;50.718;7.050;2022-07-01T06:17:12;100915.34;;;17.50;69.19
50087;BME280;35967;50.718;7.050;2022-07-01T06:27:14;100931.09;;;17.84;69.88
50087;BME280;35967;50.718;7.050;2022-07-01T06:37:25;100939.50;;;18.43;67.09
50087;BME280;35967;50.718;7.050;2022-07-01T06:47:27;100919.59;;;18.42;67.82
50087;BME280;35967;50.718;7.050;2022-07-01T06:57:29;100920.44;;;18.43;66.74
50087;BME280;35967;50.718;7.050;2022-07-01T07:07:32;100947.66;;;18.02;70.41
50087;BME280;35967;50.718;7.050;2022-07-01T07:17:34;100958.47;;;18.12;69.78
50087;BME280;35967;50.718;7.050;2022-07-01T07:27:36;100952.50;;;18.45;69.53
50087;BME280;35967;50.718;7.050;2022-07-01T07:37:39;100967.97;;;18.48;67.14
50087;BME280;35967;50.718;7.050;2022-07-01T07:47:42;100980.84;;;18.69;66.91
50087;BME280;35967;50.718;7.050;2022-07-01T07:57:45;100986.66;;;18.74;68.34
50087;BME280;35967;50.718;7.050;2022-07-01T08:07:47;100976.88;;;18.44;68.94
50087;BME280;35967;50.718;7.050;2022-07-01T08:17:49;100995.66;;;18.51;67.85
50087;BME280;35967;50.718;7.050;2022-07-01T08:27:51;101019.59;;;18.05;64.45
50087;BME280;35967;50.718;7.050;2022-07-01T08:37:53;101018.94;;;18.54;65.39
50087;BME280;35967;50.718;7.050;2022-07-01T08:47:58;101004.00;;;18.92;62.80
50087;BME280;35967;50.718;7.050;2022-07-01T08:58:03;100982.41;;;19.06;63.81
50087;BME280;35967;50.718;7.050;2022-07-01T09:08:06;100996.59;;;19.18;62.12
50087;BME280;35967;50.718;7.050;2022-07-01T09:18:13;101004.59;;;19.47;60.67
50087;BME280;35967;50.718;7.050;2022-07-01T09:28:18;101014.03;;;19.82;60.59
50087;BME280;35967;50.718;7.050;2022-07-01T09:38:22;101013.53;;;20.07;58.82
50087;BME280;35967;50.718;7.050;2022-07-01T09:58:35;101016.03;;;21.15;59.21
50087;BME280;35967;50.718;7.050;2022-07-01T10:18:55;101014.09;;;21.04;56.01
50087;BME280;35967;50.718;7.050;2022-07-01T10:28:57;100996.59;;;21.33;50.71
50087;BME280;35967;50.718;7.050;2022-07-01T10:49:13;101003.28;;;21.66;53.96
50087;BME280;35967;50.718;7.050;2022-07-01T10:59:18;100995.47;;;21.08;54.25
50087;BME280;35967;50.718;7.050;2022-07-01T11:09:20;100999.69;;;21.11;52.73
50087;BME280;35967;50.718;7.050;2022-07-01T11:19:22;100991.81;;;21.11;48.55
50087;BME280;35967;50.718;7.050;2022-07-01T11:29:27;101004.16;;;21.23;52.43
50087;BME280;35967;50.718;7.050;2022-07-01T11:39:29;101023.34;;;20.64;52.00
50087;BME280;35967;50.718;7.050;2022-07-01T11:49:46;101015.00;;;20.88;52.01
50087;BME280;35967;50.718;7.050;2022-07-01T11:59:50;101005.97;;;22.19;53.92
50087;BME280;35967;50.718;7.050;2022-07-01T12:09:52;100991.72;;;22.11;47.91
50087;BME280;35967;50.718;7.050;2022-07-01T12:19:54;101005.06;;;21.66;51.01
50087;BME280;35967;50.718;7.050;2022-07-01T12:29:56;100991.63;;;22.25;48.80
50087;BME280;35967;50.718;7.050;2022-07-01T12:40:03;100992.50;;;21.56;46.24
50087;BME280;35967;50.718;7.050;2022-07-01T13:00:23;100996.75;;;21.59;47.33
50087;BME280;35967;50.718;7.050;2022-07-01T13:10:27;101013.50;;;21.27;47.51
50087;BME280;35967;50.718;7.050;2022-07-01T13:20:29;101003.50;;;21.90;47.68
50087;BME280;35967;50.718;7.050;2022-07-01T13:30:32;101011.03;;;22.22;46.99
50087;BME280;35967;50.718;7.050;2022-07-01T13:40:34;101012.56;;;22.40;45.00
50087;BME280;35967;50.718;7.050;2022-07-01T13:50:36;101017.91;;;22.11;44.78
50087;BME280;35967;50.718;7.050;2022-07-01T14:00:38;101011.16;;;21.94;45.31
50087;BME280;35967;50.718;7.050;2022-07-01T14:10:41;101031.88;;;22.11;45.36
50087;BME280;35967;50.718;7.050;2022-07-01T14:20:42;101041.13;;;21.89;44.24
50087;BME280;35967;50.718;7.050;2022-07-01T14:30:47;101045.13;;;21.95;48.36
50087;BME280;35967;50.718;7.050;2022-07-01T14:40:48;101046.47;;;21.88;46.34
50087;BME280;35967;50.718;7.050;2022-07-01T14:50:51;101049.91;;;21.88;46.47
50087;BME280;35967;50.718;7.050;2022-07-01T15:00:53;101052.34;;;21.92;44.66
50087;BME280;35967;50.718;7.050;2022-07-01T15:10:55;101060.63;;;22.40;45.05
50087;BME280;35967;50.718;7.050;2022-07-01T15:21:04;101063.06;;;22.43;41.02
50087;BME280;35967;50.718;7.050;2022-07-01T15:31:06;101056.06;;;22.69;41.13
50087;BME280;35967;50.718;7.050;2022-07-01T15:41:32;101058.47;;;22.47;42.06
50087;BME280;35967;50.718;7.050;2022-07-01T15:51:35;101056.81;;;22.84;40.89
50087;BME280;35967;50.718;7.050;2022-07-01T16:01:37;101053.69;;;23.18;40.57
50087;BME280;35967;50.718;7.050;2022-07-01T16:11:40;101056.50;;;23.15;38.97
50087;BME280;35967;50.718;7.050;2022-07-01T16:21:42;101047.59;;;23.18;39.91
50087;BME280;35967;50.718;7.050;2022-07-01T16:31:46;101061.44;;;23.07;39.01
50087;BME280;35967;50.718;7.050;2022-07-01T16:52:10;101065.34;;;22.48;41.88
50087;BME280;35967;50.718;7.050;2022-07-01T17:02:15;101065.69;;;22.56;42.11
50087;BME280;35967;50.718;7.050;2022-07-01T17:12:17;101074.56;;;22.13;40.18
50087;BME280;35967;50.718;7.050;2022-07-01T17:22:24;101080.91;;;22.24;41.35
50087;BME280;35967;50.718;7.050;2022-07-01T17:32:33;101091.56;;;22.20;41.74
50087;BME280;35967;50.718;7.050;2022-07-01T17:42:39;101110.88;;;22.19;42.49
50087;BME280;35967;50.718;7.050;2022-07-01T17:52:45;101121.16;;;22.22;43.61
50087;BME280;35967;50.718;7.050;2022-07-01T18:02:47;101125.19;;;22.28;44.26
50087;BME280;35967;50.718;7.050;2022-07-01T18:12:51;101133.19;;;22.12;44.54
50087;BME280;35967;50.718;7.050;2022-07-01T18:23:05;101147.31;;;22.10;45.33
50087;BME280;35967;50.718;7.050;2022-07-01T18:33:12;101137.22;;;22.03;44.05
50087;BME280;35967;50.718;7.050;2022-07-01T18:43:14;101146.94;;;22.16;42.82
50087;BME280;35967;50.718;7.050;2022-07-01T18:53:15;101155.69;;;22.02;43.57
50087;BME280;35967;50.718;7.050;2022-07-01T19:03:17;101171.34;;;21.74;43.50
50087;BME280;35967;50.718;7.050;2022-07-01T19:13:19;101174.81;;;21.75;45.23
50087;BME280;35967;50.718;7.050;2022-07-01T19:23:21;101188.06;;;21.72;46.44
50087;BME280;35967;50.718;7.050;2022-07-01T19:33:23;101202.19;;;21.55;46.97
50087;BME280;35967;50.718;7.050;2022-07-01T19:43:25;101218.06;;;21.52;48.36
50087;BME280;35967;50.718;7.050;2022-07-01T19:53:27;101241.63;;;21.52;47.67
50087;BME280;35967;50.718;7.050;2022-07-01T20:03:28;101244.69;;;21.60;56.47
50087;BME280;35967;50.718;7.050;2022-07-01T20:13:33;101268.03;;;21.79;52.49
50087;BME280;35967;50.718;7.050;2022-07-01T20:33:39;101285.94;;;21.26;50.51
50087;BME280;35967;50.718;7.050;2022-07-01T20:43:47;101289.44;;;20.94;51.64
50087;BME280;35967;50.718;7.050;2022-07-01T20:53:49;101310.94;;;21.00;50.55
50087;BME280;35967;50.718;7.050;2022-07-01T21:03:51;101322.44;;;20.81;50.17
50087;BME280;35967;50.718;7.050;2022-07-01T21:13:53;101330.66;;;20.57;50.53
50087;BME280;35967;50.718;7.050;2022-07-01T21:23:55;101334.94;;;20.42;50.40
50087;BME280;35967;50.718;7.050;2022-07-01T21:33:57;101343.00;;;20.22;51.14
50087;BME280;35967;50.718;7.050;2022-07-01T21:44:01;101345.16;;;20.13;51.54
50087;BME280;35967;50.718;7.050;2022-07-01T21:54:04;101351.00;;;20.01;51.86
50087;BME280;35967;50.718;7.050;2022-07-01T22:04:06;101345.25;;;19.94;52.21
50087;BME280;35967;50.718;7.050;2022-07-01T22:14:11;101353.56;;;19.83;51.98
50087;BME280;35967;50.718;7.050;2022-07-01T22:24:15;101371.47;;;19.74;52.58
50087;BME280;35967;50.718;7.050;2022-07-01T22:34:18;101374.00;;;19.58;53.54
50087;BME280;35967;50.718;7.050;2022-07-01T22:44:21;101378.81;;;19.48;53.14
50087;BME280;35967;50.718;7.050;2022-07-01T23:05:02;101384.66;;;18.97;55.60
50087;BME280;35967;50.718;7.050;2022-07-01T23:15:07;101390.69;;;18.79;56.94
50087;BME280;35967;50.718;7.050;2022-07-01T23:25:30;101390.38;;;18.66;57.07
50087;BME280;35967;50.718;7.050;2022-07-01T23:35:32;101400.09;;;18.62;57.85
50087;BME280;35967;50.718;7.050;2022-07-01T23:45:35;101396.88;;;18.57;57.57
50087;BME280;35967;50.718;7.050;2022-07-01T23:55:39;101399.28;;;18.41;56.52
